Time;durP1;ratioP1;P1;durP2;ratioP2;P2;SDS_P1;SDS_P2;PMS_P1;PMS_P2;Temp;Humidity;BMP_temperature;BMP_pressure;BME280_temperature;BME280_humidity;BME280_pressure;Samples;Min_cycle;Max_cycle;Signal;HPM_P1;HPM_P2
2022/11/19 07:00:17;;;;;;;;;9.00;6.00;;;;;;;;5606296;24;45378;-56
2022/11/19 07:02:42;;;;;;;;;8.67;6.67;;;;;;;;4711022;30;46138;-57
2022/11/19 07:05:07;;;;;;;;;11.00;8.33;;;;;;;;4711402;30;45509;-56
2022/11/19 07:07:33;;;;;;;;;12.67;9.67;;;;;;;;4715441;30;45378;-57
2022/11/19 07:09:58;;;;;;;;;12.00;7.33;;;;;;;;4710837;30;45552;-56
2022/11/19 07:12:23;;;;;;;;;14.33;8.33;;;;;;;;4710269;30;46162;-56
2022/11/19 07:14:49;;;;;;;;;12.00;9.00;;;;;;;;4713139;30;45478;-57
2022/11/19 07:17:14;;;;;;;;;8.67;8.67;;;;;;;;4719220;30;45444;-56
2022/11/19 07:19:39;;;;;;;;;8.67;8.67;;;;;;;;4710971;30;45689;-57
2022/11/19 07:22:04;;;;;;;;;9.33;9.33;;;;;;;;4718466;30;45519;-58
2022/11/19 07:24:29;;;;;;;;;13.00;10.67;;;;;;;;4716777;30;45372;-57
2022/11/19 07:26:55;;;;;;;;;10.33;10.33;;;;;;;;4717961;30;45309;-57
2022/11/19 07:29:20;;;;;;;;;11.67;7.00;;;;;;;;4706062;30;45787;-56
2022/11/19 07:31:49;;;;;;;;;10.00;7.67;;;;;;;;4700252;30;46872;-57
2022/11/19 07:34:14;;;;;;;;;12.00;11.67;;;;;;;;4719000;30;45334;-58
2022/11/19 07:36:39;;;;;;;;;10.00;7.67;;;;;;;;4718254;30;45460;-58
2022/11/19 07:39:05;;;;;;;;;9.67;7.33;;;;;;;;4710939;30;45454;-57
2022/11/19 07:44:13;;;;;;;;;12.00;10.33;;;;;;;;4718654;30;45267;-58
2022/11/19 07:46:39;;;;;;;;;13.33;12.33;;;;;;;;4716909;30;45549;-57
2022/11/19 07:49:05;;;;;;;;;11.33;11.33;;;;;;;;4712156;30;45443;-58
2022/11/19 07:51:30;;;;;;;;;13.00;9.33;;;;;;;;4726253;30;45529;-57
2022/11/19 07:53:56;;;;;;;;;15.33;12.33;;;;;;;;4716343;30;45627;-58
2022/11/19 07:56:21;;;;;;;;;14.00;8.00;;;;;;;;4712724;30;45414;-59
2022/11/19 07:58:46;;;;;;;;;14.67;11.33;;;;;;;;4705958;30;45603;-58
2022/11/19 08:01:13;;;;;;;;;8.00;7.33;;;;;;;;4716003;30;45854;-58
2022/11/19 08:03:41;;;;;;;;;10.33;8.67;;;;;;;;4719535;30;45454;-57
2022/11/19 08:06:06;;;;;;;;;11.33;9.67;;;;;;;;4719979;30;45305;-57
2022/11/19 08:08:32;;;;;;;;;8.00;6.33;;;;;;;;4715995;30;45245;-57
2022/11/19 08:11:01;;;;;;;;;12.67;12.33;;;;;;;;4712840;30;45767;-57
2022/11/19 08:13:26;;;;;;;;;11.33;9.00;;;;;;;;4710047;30;45852;-59
2022/11/19 08:15:57;;;;;;;;;13.00;13.00;;;;;;;;4702859;30;45388;-58
2022/11/19 08:18:23;;;;;;;;;8.33;8.00;;;;;;;;4717831;30;45408;-58
2022/11/19 08:20:48;;;;;;;;;13.00;11.67;;;;;;;;4716632;30;46965;-59
2022/11/19 08:23:14;;;;;;;;;11.00;8.67;;;;;;;;4717298;30;45276;-58
2022/11/19 08:25:41;;;;;;;;;16.33;13.00;;;;;;;;4708968;30;45735;-58
2022/11/19 08:28:06;;;;;;;;;11.00;11.00;;;;;;;;4713044;30;45429;-59
2022/11/19 08:30:32;;;;;;;;;15.00;13.33;;;;;;;;4725757;30;46307;-57
2022/11/19 08:32:57;;;;;;;;;11.67;11.67;;;;;;;;4706047;30;45467;-57
2022/11/19 08:35:23;;;;;;;;;13.00;13.00;;;;;;;;4710187;30;45466;-56
2022/11/19 08:37:48;;;;;;;;;15.00;13.00;;;;;;;;4714013;30;45461;-57
2022/11/19 08:40:13;;;;;;;;;16.67;13.67;;;;;;;;4709224;30;46281;-59
2022/11/19 08:45:22;;;;;;;;;16.00;13.00;;;;;;;;4720004;30;45501;-58
2022/11/19 08:47:48;;;;;;;;;12.67;9.00;;;;;;;;4725555;30;45434;-58
2022/11/19 08:50:13;;;;;;;;;15.33;13.67;;;;;;;;4705107;30;45469;-60
2022/11/19 08:52:38;;;;;;;;;13.67;13.67;;;;;;;;4713110;30;45513;-58
2022/11/19 08:55:04;;;;;;;;;21.33;16.33;;;;;;;;4710222;30;45487;-59
2022/11/19 08:57:29;;;;;;;;;12.33;12.33;;;;;;;;4711603;30;45642;-58
2022/11/19 08:59:54;;;;;;;;;15.67;12.67;;;;;;;;4720224;30;46056;-57
2022/11/19 09:02:19;;;;;;;;;13.00;12.00;;;;;;;;4721087;30;45574;-58
2022/11/19 09:04:45;;;;;;;;;13.33;12.67;;;;;;;;4725552;30;45337;-57
2022/11/19 09:07:10;;;;;;;;;15.67;12.00;;;;;;;;4714470;30;45647;-57
2022/11/19 09:09:35;;;;;;;;;12.00;12.00;;;;;;;;4722767;30;46556;-56
2022/11/19 09:12:00;;;;;;;;;10.67;9.00;;;;;;;;4723300;30;45763;-56
2022/11/19 09:14:25;;;;;;;;;9.67;9.67;;;;;;;;4708877;30;45457;-57
2022/11/19 09:16:51;;;;;;;;;14.00;11.33;;;;;;;;4711010;30;45461;-59
2022/11/19 09:19:16;;;;;;;;;17.33;14.00;;;;;;;;4706074;30;46029;-58
2022/11/19 09:21:41;;;;;;;;;17.00;15.00;;;;;;;;4718433;30;45428;-58
2022/11/19 09:24:06;;;;;;;;;13.00;12.33;;;;;;;;4712319;30;45233;-57
2022/11/19 09:26:31;;;;;;;;;14.00;13.33;;;;;;;;4716892;30;45463;-58
2022/11/19 09:28:57;;;;;;;;;17.67;16.33;;;;;;;;4719594;30;45433;-59
2022/11/19 09:31:22;;;;;;;;;15.00;14.00;;;;;;;;4714511;30;45693;-57
2022/11/19 09:33:48;;;;;;;;;9.33;9.33;;;;;;;;4714782;30;45285;-57
2022/11/19 09:36:14;;;;;;;;;10.67;10.33;;;;;;;;4717669;30;45674;-58
2022/11/19 09:38:39;;;;;;;;;11.67;10.00;;;;;;;;4728015;30;46198;-57
2022/11/19 09:41:10;;;;;;;;;8.33;8.33;;;;;;;;4722666;30;45291;-57
2022/11/19 09:44:02;;;;;;;;;13.33;11.33;;;;;;;;4719317;30;45407;-57
2022/11/19 09:46:39;;;;;;;;;14.67;9.00;;;;;;;;4683506;30;45483;-57
2022/11/19 09:49:17;;;;;;;;;9.67;9.67;;;;;;;;4716832;30;45296;-57
2022/11/19 09:51:45;;;;;;;;;14.00;10.00;;;;;;;;4711809;30;45331;-56
2022/11/19 09:54:13;;;;;;;;;12.00;10.00;;;;;;;;4716390;30;45390;-56
2022/11/19 09:56:41;;;;;;;;;13.67;11.67;;;;;;;;4720404;30;45673;-57
2022/11/19 09:59:10;;;;;;;;;12.00;12.00;;;;;;;;4708298;30;47524;-58
2022/11/19 10:01:36;;;;;;;;;11.67;11.67;;;;;;;;4719019;30;45537;-57
2022/11/19 10:04:02;;;;;;;;;11.67;11.67;;;;;;;;4716212;30;45582;-55
2022/11/19 10:06:29;;;;;;;;;14.33;10.67;;;;;;;;4707946;30;45635;-59
2022/11/19 10:08:55;;;;;;;;;12.00;12.00;;;;;;;;4717428;30;46181;-59
2022/11/19 10:11:39;;;;;;;;;13.67;12.00;;;;;;;;4720081;30;45355;-59
2022/11/19 10:14:14;;;;;;;;;9.67;9.33;;;;;;;;4712483;30;45281;-59
2022/11/19 10:17:00;;;;;;;;;12.33;11.00;;;;;;;;4702990;30;45407;-59
2022/11/19 10:19:41;;;;;;;;;12.00;12.00;;;;;;;;4682705;30;45477;-59
2022/11/19 10:22:09;;;;;;;;;9.67;9.67;;;;;;;;4719382;30;45402;-59
2022/11/19 10:24:43;;;;;;;;;12.67;11.33;;;;;;;;4713733;30;45507;-59
2022/11/19 10:27:30;;;;;;;;;16.67;14.67;;;;;;;;4710071;30;45711;-59
2022/11/19 10:29:58;;;;;;;;;12.00;11.00;;;;;;;;4702525;30;47203;-59
2022/11/19 10:32:34;;;;;;;;;11.00;10.33;;;;;;;;4711809;30;45524;-59
2022/11/19 10:35:02;;;;;;;;;13.00;13.00;;;;;;;;4708837;30;45366;-59
2022/11/19 10:37:30;;;;;;;;;12.67;11.00;;;;;;;;4712348;30;45258;-59
2022/11/19 10:40:01;;;;;;;;;16.00;14.67;;;;;;;;4700810;30;45992;-59
2022/11/19 10:42:35;;;;;;;;;11.33;11.00;;;;;;;;4713823;30;45478;-59
2022/11/19 10:45:04;;;;;;;;;14.00;11.33;;;;;;;;4710784;30;45360;-59
2022/11/19 10:47:29;;;;;;;;;11.33;11.00;;;;;;;;4708610;30;45460;-59
2022/11/19 10:49:54;;;;;;;;;12.00;10.33;;;;;;;;4709448;30;46758;-59
2022/11/19 10:52:41;;;;;;;;;9.33;9.33;;;;;;;;4710743;30;45585;-59
2022/11/19 10:55:15;;;;;;;;;10.33;9.00;;;;;;;;4711882;30;45340;-59
2022/11/19 10:57:40;;;;;;;;;10.33;10.00;;;;;;;;4712886;30;45722;-59
2022/11/19 11:00:06;;;;;;;;;10.67;9.00;;;;;;;;4709529;30;46211;-59
2022/11/19 11:02:31;;;;;;;;;11.00;8.00;;;;;;;;4714693;30;45378;-59
2022/11/19 11:05:01;;;;;;;;;14.67;9.00;;;;;;;;4712888;30;45657;-59
2022/11/19 11:07:47;;;;;;;;;12.67;10.33;;;;;;;;4712057;30;45751;-59
2022/11/19 11:10:31;;;;;;;;;11.67;11.00;;;;;;;;4703519;30;46128;-59
2022/11/19 11:15:49;;;;;;;;;13.67;8.67;;;;;;;;4708144;30;45563;-59
2022/11/19 11:18:16;;;;;;;;;8.67;8.00;;;;;;;;4706498;30;45519;-59
2022/11/19 11:20:46;;;;;;;;;11.00;11.00;;;;;;;;4707538;30;46434;-59
2022/11/19 11:23:16;;;;;;;;;8.00;8.00;;;;;;;;4705743;30;45817;-59
2022/11/19 11:25:51;;;;;;;;;17.00;11.33;;;;;;;;4703662;30;45686;-59
2022/11/19 11:28:18;;;;;;;;;9.33;9.33;;;;;;;;4705816;30;45598;-59
2022/11/19 11:30:50;;;;;;;;;14.67;11.33;;;;;;;;4686599;30;47095;-59
2022/11/19 11:33:30;;;;;;;;;10.33;9.00;;;;;;;;4717633;30;45512;-59
2022/11/19 11:35:58;;;;;;;;;10.67;10.67;;;;;;;;4718056;30;45572;-59
2022/11/19 11:38:24;;;;;;;;;10.00;8.00;;;;;;;;4718287;30;45259;-60
2022/11/19 11:40:56;;;;;;;;;10.00;9.67;;;;;;;;4703974;30;46409;-59
2022/11/19 11:43:21;;;;;;;;;12.33;10.67;;;;;;;;4691747;30;45337;-58
2022/11/19 11:45:53;;;;;;;;;9.67;9.67;;;;;;;;4712380;30;45576;-58
2022/11/19 11:48:20;;;;;;;;;11.00;9.33;;;;;;;;4708899;30;45528;-58
2022/11/19 11:50:46;;;;;;;;;13.33;10.00;;;;;;;;4716470;30;46424;-59
2022/11/19 11:53:13;;;;;;;;;8.00;7.00;;;;;;;;4709419;30;45459;-59
2022/11/19 11:55:38;;;;;;;;;15.33;12.00;;;;;;;;4716374;30;45417;-59
2022/11/19 11:58:09;;;;;;;;;9.67;9.67;;;;;;;;4708192;30;45136;-59
2022/11/19 12:00:37;;;;;;;;;8.33;6.00;;;;;;;;4712412;30;45464;-59
2022/11/19 12:03:02;;;;;;;;;11.67;11.67;;;;;;;;4707683;30;45534;-59
2022/11/19 12:05:41;;;;;;;;;9.00;9.00;;;;;;;;4711315;30;45486;-58
2022/11/19 12:08:13;;;;;;;;;11.00;7.33;;;;;;;;4709762;30;45599;-59
2022/11/19 12:10:49;;;;;;;;;7.00;6.00;;;;;;;;4710933;30;45391;-59
2022/11/19 12:13:23;;;;;;;;;9.33;9.00;;;;;;;;4709305;30;45460;-59
2022/11/19 12:15:55;;;;;;;;;9.67;7.67;;;;;;;;4708067;30;45694;-59
2022/11/19 12:18:39;;;;;;;;;7.67;7.67;;;;;;;;4707994;30;45700;-59
2022/11/19 12:21:08;;;;;;;;;6.67;6.67;;;;;;;;4708086;30;46438;-59
2022/11/19 12:23:44;;;;;;;;;10.00;8.00;;;;;;;;4714099;30;45281;-59
2022/11/19 12:26:11;;;;;;;;;8.33;7.67;;;;;;;;4707154;30;45292;-59
2022/11/19 12:28:55;;;;;;;;;7.33;7.00;;;;;;;;4703780;30;45364;-60
2022/11/19 12:31:35;;;;;;;;;5.00;5.00;;;;;;;;4715750;30;46699;-60
2022/11/19 12:34:18;;;;;;;;;3.33;2.33;;;;;;;;4707172;30;45598;-60
2022/11/19 12:36:51;;;;;;;;;7.67;6.00;;;;;;;;4707502;30;45700;-60
2022/11/19 12:39:19;;;;;;;;;7.33;7.00;;;;;;;;4714690;30;45580;-58
2022/11/19 12:41:59;;;;;;;;;7.00;7.00;;;;;;;;4709194;30;46065;-58
2022/11/19 12:44:27;;;;;;;;;9.00;8.00;;;;;;;;4714729;30;45350;-59
2022/11/19 12:46:59;;;;;;;;;11.33;10.00;;;;;;;;4717319;30;45322;-59
2022/11/19 12:49:33;;;;;;;;;6.67;6.00;;;;;;;;4713679;30;45402;-59
2022/11/19 12:52:17;;;;;;;;;4.33;4.00;;;;;;;;4712102;30;46154;-59
2022/11/19 12:54:51;;;;;;;;;9.67;9.67;;;;;;;;4715309;30;45525;-59
2022/11/19 12:57:19;;;;;;;;;6.67;6.33;;;;;;;;4706406;30;45356;-59
2022/11/19 12:59:56;;;;;;;;;4.75;2.75;;;;;;;;4710674;30;45669;-59
2022/11/19 13:02:27;;;;;;;;;7.67;4.67;;;;;;;;4713927;30;46866;-58
2022/11/19 13:05:11;;;;;;;;;7.00;6.67;;;;;;;;4714339;30;45468;-59
2022/11/19 13:07:39;;;;;;;;;2.00;2.00;;;;;;;;4712351;30;45594;-59
2022/11/19 13:10:17;;;;;;;;;1.00;1.00;;;;;;;;4696584;30;45430;-59
2022/11/19 13:12:44;;;;;;;;;3.25;1.00;;;;;;;;4714259;30;46409;-59
2022/11/19 13:15:16;;;;;;;;;6.33;3.00;;;;;;;;4715991;30;45561;-59
2022/11/19 13:17:43;;;;;;;;;5.00;3.00;;;;;;;;4711825;30;45368;-60
2022/11/19 13:20:35;;;;;;;;;4.67;2.00;;;;;;;;4711594;30;45500;-59
2022/11/19 13:23:02;;;;;;;;;6.00;4.67;;;;;;;;4675829;30;46168;-60
2022/11/19 13:25:43;;;;;;;;;12.67;9.67;;;;;;;;4697881;30;45456;-57
2022/11/19 13:28:21;;;;;;;;;8.00;8.00;;;;;;;;4719075;30;45308;-60
2022/11/19 13:30:49;;;;;;;;;4.33;4.33;;;;;;;;4707404;30;45844;-60
2022/11/19 13:33:17;;;;;;;;;2.75;2.75;;;;;;;;4711075;30;46734;-59
2022/11/19 13:35:45;;;;;;;;;4.33;3.00;;;;;;;;4719043;30;45379;-59
2022/11/19 13:38:29;;;;;;;;;4.00;3.00;;;;;;;;4713002;30;45452;-59
2022/11/19 13:41:12;;;;;;;;;7.00;5.00;;;;;;;;4708759;30;45815;-59
2022/11/19 13:46:31;;;;;;;;;3.67;2.33;;;;;;;;4715319;30;45500;-60
2022/11/19 13:49:07;;;;;;;;;2.67;2.67;;;;;;;;4710831;30;45578;-60
2022/11/19 13:51:52;;;;;;;;;4.67;4.00;;;;;;;;4710319;30;45772;-60
2022/11/19 13:54:20;;;;;;;;;6.33;4.33;;;;;;;;4705191;30;45384;-58
2022/11/19 13:56:47;;;;;;;;;8.00;7.67;;;;;;;;4716547;30;45897;-59
2022/11/19 13:59:41;;;;;;;;;5.67;4.67;;;;;;;;4712699;30;45424;-58
2022/11/19 14:02:33;;;;;;;;;3.67;3.67;;;;;;;;4696348;30;45896;-57
2022/11/19 14:05:07;;;;;;;;;2.00;2.00;;;;;;;;4717210;30;46294;-58
2022/11/19 14:07:43;;;;;;;;;2.00;2.00;;;;;;;;4707697;30;45481;-53
2022/11/19 14:10:29;;;;;;;;;3.00;2.00;;;;;;;;4699817;30;45485;-57
2022/11/19 14:13:01;;;;;;;;;3.00;3.00;;;;;;;;4704675;30;45545;-56
2022/11/19 14:27:30;;;;;;;;;2.33;2.33;;;;;;;;4719622;30;45811;-57
2022/11/19 14:29:58;;;;;;;;;3.67;2.00;;;;;;;;4719139;30;45372;-57
2022/11/19 14:32:29;;;;;;;;;2.00;2.00;;;;;;;;4718441;30;45515;-57
2022/11/19 14:35:00;;;;;;;;;1.00;1.00;;;;;;;;4718038;30;45439;-56
2022/11/19 14:37:31;;;;;;;;;2.00;2.00;;;;;;;;4707752;30;46480;-57
2022/11/19 14:40:01;;;;;;;;;3.00;1.33;;;;;;;;4718306;30;45542;-57
2022/11/19 14:42:26;;;;;;;;;1.33;0.00;;;;;;;;4714907;30;45383;-55
2022/11/19 14:45:01;;;;;;;;;1.00;1.00;;;;;;;;4702929;30;45293;-58
2022/11/19 14:47:26;;;;;;;;;0.00;0.00;;;;;;;;4717774;30;46866;-57
2022/11/19 14:49:53;;;;;;;;;0.33;0.33;;;;;;;;4709723;30;45529;-57
2022/11/19 14:52:24;;;;;;;;;1.33;1.00;;;;;;;;4709528;30;45452;-58
2022/11/19 14:55:08;;;;;;;;;4.00;2.67;;;;;;;;4710667;30;45658;-58
2022/11/19 14:57:33;;;;;;;;;1.00;1.00;;;;;;;;4710411;30;45352;-58
2022/11/19 15:00:22;;;;;;;;;2.00;2.00;;;;;;;;4718901;30;45384;-58
2022/11/19 15:02:50;;;;;;;;;5.00;2.00;;;;;;;;4717868;30;45348;-54
2022/11/19 15:05:15;;;;;;;;;3.33;3.33;;;;;;;;4721598;30;45622;-54
2022/11/19 15:07:43;;;;;;;;;2.00;2.00;;;;;;;;4724180;30;45993;-55
2022/11/19 15:10:21;;;;;;;;;2.67;1.00;;;;;;;;4715749;30;45423;-55
2022/11/19 15:12:49;;;;;;;;;6.00;4.00;;;;;;;;4712436;30;45422;-57
2022/11/19 15:15:21;;;;;;;;;2.00;2.00;;;;;;;;4697313;30;45718;-56
2022/11/19 15:17:49;;;;;;;;;2.00;2.00;;;;;;;;4715439;30;46211;-57
2022/11/19 15:20:26;;;;;;;;;3.00;3.00;;;;;;;;4711982;30;45336;-58
2022/11/19 15:23:02;;;;;;;;;3.00;3.00;;;;;;;;4718012;30;46037;-57
2022/11/19 15:25:42;;;;;;;;;2.00;2.00;;;;;;;;4713933;30;45455;-57
2022/11/19 15:28:13;;;;;;;;;4.33;3.33;;;;;;;;4716418;30;46319;-57
2022/11/19 15:30:47;;;;;;;;;3.00;2.00;;;;;;;;4711257;30;45671;-57
2022/11/19 15:33:15;;;;;;;;;4.00;2.00;;;;;;;;4713534;30;45481;-57
2022/11/19 15:35:58;;;;;;;;;4.67;4.00;;;;;;;;4704895;30;45771;-57
2022/11/19 15:38:28;;;;;;;;;3.00;3.00;;;;;;;;4720997;30;45443;-57
2022/11/19 15:40:55;;;;;;;;;3.67;1.00;;;;;;;;4720837;30;45288;-57
2022/11/19 15:43:20;;;;;;;;;3.00;2.67;;;;;;;;4699319;30;45561;-56
2022/11/19 15:46:03;;;;;;;;;4.00;3.00;;;;;;;;4719211;30;45484;-58
2022/11/19 15:48:44;;;;;;;;;1.00;1.00;;;;;;;;4720656;30;45368;-57
2022/11/19 15:51:14;;;;;;;;;5.67;3.67;;;;;;;;4696413;30;45515;-53
2022/11/19 15:53:56;;;;;;;;;5.00;5.00;;;;;;;;4709272;30;46721;-49
2022/11/19 15:56:21;;;;;;;;;7.67;6.00;;;;;;;;4718633;30;45447;-51
2022/11/19 15:58:46;;;;;;;;;3.67;3.00;;;;;;;;4719384;30;46378;-50
2022/11/19 16:01:19;;;;;;;;;4.33;4.33;;;;;;;;4720610;30;45333;-51
2022/11/19 16:03:44;;;;;;;;;3.33;3.33;;;;;;;;4717774;30;45361;-52
2022/11/19 16:06:18;;;;;;;;;2.67;2.67;;;;;;;;4719377;30;45390;-53
2022/11/19 16:08:44;;;;;;;;;37.33;16.67;;;;;;;;4709219;30;48389;-51
2022/11/19 16:19:25;;;;;;;;;3.33;3.33;;;;;;;;4707220;30;45687;-59
2022/11/19 16:21:55;;;;;;;;;2.67;2.00;;;;;;;;4709782;30;45479;-60
2022/11/19 16:27:08;;;;;;;;;4.33;3.00;;;;;;;;4713209;30;45557;-61
2022/11/19 16:29:37;;;;;;;;;2.67;2.00;;;;;;;;4719773;30;46326;-61
2022/11/19 16:32:03;;;;;;;;;3.00;3.00;;;;;;;;4719562;30;45587;-60
2022/11/19 16:34:30;;;;;;;;;6.67;5.00;;;;;;;;4716121;30;45277;-60
2022/11/19 16:36:56;;;;;;;;;6.33;4.00;;;;;;;;4716543;30;45345;-60
2022/11/19 16:39:22;;;;;;;;;4.00;4.00;;;;;;;;4719901;30;45509;-60
2022/11/19 16:44:33;;;;;;;;;7.00;4.33;;;;;;;;4721194;30;45386;-60
2022/11/19 16:47:02;;;;;;;;;5.00;5.00;;;;;;;;4719122;30;45308;-60
2022/11/19 16:49:36;;;;;;;;;6.33;6.00;;;;;;;;4719974;30;46307;-61
2022/11/19 16:52:02;;;;;;;;;6.00;5.00;;;;;;;;4705141;30;45423;-61
2022/11/19 16:54:46;;;;;;;;;8.00;7.00;;;;;;;;4692951;30;45700;-60
2022/11/19 16:57:12;;;;;;;;;7.67;6.33;;;;;;;;4719805;30;45391;-60
2022/11/19 16:59:38;;;;;;;;;3.00;3.00;;;;;;;;4706630;30;45580;-60
2022/11/19 17:02:03;;;;;;;;;8.00;7.00;;;;;;;;4700854;30;45419;-61
2022/11/19 17:04:29;;;;;;;;;5.00;3.67;;;;;;;;4720401;30;45347;-62
2022/11/19 17:06:56;;;;;;;;;3.33;3.33;;;;;;;;4719727;30;45414;-62
2022/11/19 17:09:33;;;;;;;;;7.00;5.67;;;;;;;;4717039;30;46207;-62
2022/11/19 17:12:16;;;;;;;;;5.67;5.67;;;;;;;;4718890;30;45413;-62
2022/11/19 17:14:45;;;;;;;;;9.33;7.00;;;;;;;;4715071;30;45328;-62
2022/11/19 17:17:29;;;;;;;;;8.00;7.00;;;;;;;;4718696;30;45638;-62
2022/11/19 17:19:57;;;;;;;;;6.33;6.33;;;;;;;;4718601;30;45968;-62
2022/11/19 17:22:26;;;;;;;;;6.67;5.33;;;;;;;;4718415;30;45275;-61
2022/11/19 17:24:51;;;;;;;;;7.33;5.67;;;;;;;;4716247;30;45362;-62
2022/11/19 17:27:33;;;;;;;;;7.33;7.00;;;;;;;;4718206;30;45412;-63
2022/11/19 17:30:01;;;;;;;;;8.00;6.67;;;;;;;;4716948;30;46390;-62
2022/11/19 17:32:32;;;;;;;;;7.00;5.00;;;;;;;;4719199;30;45803;-63
2022/11/19 17:34:57;;;;;;;;;9.00;7.00;;;;;;;;4716483;30;45801;-63
2022/11/19 17:37:22;;;;;;;;;7.00;7.00;;;;;;;;4713873;30;45369;-65
2022/11/19 17:39:47;;;;;;;;;9.67;9.67;;;;;;;;4714839;30;45491;-65
2022/11/19 17:44:56;;;;;;;;;9.00;9.00;;;;;;;;4709564;30;45542;-64
2022/11/19 17:47:22;;;;;;;;;10.00;8.33;;;;;;;;4716992;30;45351;-65
2022/11/19 17:49:47;;;;;;;;;14.00;14.00;;;;;;;;4714198;30;46340;-65
2022/11/19 17:52:21;;;;;;;;;16.33;13.00;;;;;;;;4713023;30;45446;-65
2022/11/19 17:54:46;;;;;;;;;17.33;16.00;;;;;;;;4712794;30;45470;-64
2022/11/19 17:57:11;;;;;;;;;15.67;15.00;;;;;;;;4709950;30;46189;-64
2022/11/19 17:59:37;;;;;;;;;14.33;13.00;;;;;;;;4704216;30;46109;-64
2022/11/19 18:02:02;;;;;;;;;15.00;11.00;;;;;;;;4710829;30;45297;-65
2022/11/19 18:04:27;;;;;;;;;17.00;14.67;;;;;;;;4714324;30;45521;-67
2022/11/19 18:06:52;;;;;;;;;16.33;16.33;;;;;;;;4709610;30;45422;-60
2022/11/19 18:09:18;;;;;;;;;16.67;15.00;;;;;;;;4714916;30;46257;-59
2022/11/19 18:11:43;;;;;;;;;14.00;14.00;;;;;;;;4712185;30;45676;-59
2022/11/19 18:14:11;;;;;;;;;15.00;11.00;;;;;;;;4706242;30;45332;-59
2022/11/19 18:16:38;;;;;;;;;17.00;16.00;;;;;;;;4705646;30;45509;-59
2022/11/19 18:19:11;;;;;;;;;19.33;14.00;;;;;;;;4713050;30;47186;-61
2022/11/19 18:21:36;;;;;;;;;18.67;15.67;;;;;;;;4717074;30;45349;-59
2022/11/19 18:24:01;;;;;;;;;16.33;13.33;;;;;;;;4711479;30;45850;-60
2022/11/19 18:26:27;;;;;;;;;15.33;13.00;;;;;;;;4709811;30;45327;-60
2022/11/19 18:28:52;;;;;;;;;12.00;12.00;;;;;;;;4704218;30;46216;-60
2022/11/19 18:31:18;;;;;;;;;13.00;13.00;;;;;;;;4708087;30;45512;-60
2022/11/19 18:33:46;;;;;;;;;15.00;13.00;;;;;;;;4709199;30;45308;-59
2022/11/19 18:36:11;;;;;;;;;17.67;14.00;;;;;;;;4687954;30;45452;-59
2022/11/19 18:38:37;;;;;;;;;17.00;14.67;;;;;;;;4714945;30;45703;-59
2022/11/19 18:41:02;;;;;;;;;16.00;14.33;;;;;;;;4710662;30;46665;-59
2022/11/19 18:46:10;;;;;;;;;18.67;16.00;;;;;;;;4716142;30;45469;-59
2022/11/19 18:48:36;;;;;;;;;21.00;15.67;;;;;;;;4704545;30;46740;-59
2022/11/19 18:51:01;;;;;;;;;19.00;16.00;;;;;;;;4714832;30;45394;-59
2022/11/19 18:53:26;;;;;;;;;19.67;16.00;;;;;;;;4714557;30;45207;-59
2022/11/19 18:55:51;;;;;;;;;17.67;16.67;;;;;;;;4727932;30;45466;-59
2022/11/19 18:58:16;;;;;;;;;15.00;15.00;;;;;;;;4715007;30;45919;-58
2022/11/19 19:00:42;;;;;;;;;17.33;14.67;;;;;;;;4713184;30;45307;-59
2022/11/19 19:03:11;;;;;;;;;17.00;16.00;;;;;;;;4712804;30;45369;-59
2022/11/19 19:05:37;;;;;;;;;20.33;16.00;;;;;;;;4713321;30;45558;-58
2022/11/19 19:08:02;;;;;;;;;15.67;15.67;;;;;;;;4703687;30;45521;-59
2022/11/19 19:10:27;;;;;;;;;18.00;13.00;;;;;;;;4708670;30;45913;-58
2022/11/19 19:12:53;;;;;;;;;23.00;18.33;;;;;;;;4711500;30;45321;-59
2022/11/19 19:15:18;;;;;;;;;15.00;13.67;;;;;;;;4707104;30;45452;-59
2022/11/19 19:17:43;;;;;;;;;13.67;13.00;;;;;;;;4715513;30;46646;-59
2022/11/19 19:20:09;;;;;;;;;17.67;14.33;;;;;;;;4718298;30;45298;-60
2022/11/19 19:22:34;;;;;;;;;15.33;12.00;;;;;;;;4716376;30;45737;-59
2022/11/19 19:24:59;;;;;;;;;13.67;13.00;;;;;;;;4708135;30;45470;-59
2022/11/19 19:27:25;;;;;;;;;17.67;16.67;;;;;;;;4709175;30;46966;-59
2022/11/19 19:29:50;;;;;;;;;17.00;16.33;;;;;;;;4706391;30;45403;-59
2022/11/19 19:32:15;;;;;;;;;16.67;16.67;;;;;;;;4711433;30;45938;-59
2022/11/19 19:34:40;;;;;;;;;15.67;14.00;;;;;;;;4711525;30;45302;-58
2022/11/19 19:37:05;;;;;;;;;17.00;13.67;;;;;;;;4715557;30;45372;-58
2022/11/19 19:39:31;;;;;;;;;17.67;13.00;;;;;;;;4716213;30;45475;-58
2022/11/19 19:41:56;;;;;;;;;13.33;13.33;;;;;;;;4716024;30;45359;-59
2022/11/19 19:44:21;;;;;;;;;17.33;15.33;;;;;;;;4711549;30;45246;-59
2022/11/19 19:46:47;;;;;;;;;18.00;17.33;;;;;;;;4706325;30;45261;-59
2022/11/19 19:49:13;;;;;;;;;14.00;13.00;;;;;;;;4715535;30;45640;-59
2022/11/19 19:51:38;;;;;;;;;14.67;14.67;;;;;;;;4714923;30;45717;-59
2022/11/19 19:54:03;;;;;;;;;12.67;11.67;;;;;;;;4709725;30;46761;-59
2022/11/19 19:56:29;;;;;;;;;18.67;14.33;;;;;;;;4715403;30;46161;-58
2022/11/19 19:58:55;;;;;;;;;17.33;15.67;;;;;;;;4723860;30;45309;-58
2022/11/19 20:01:21;;;;;;;;;20.00;17.33;;;;;;;;4713303;30;45225;-59
2022/11/19 20:03:47;;;;;;;;;18.00;18.00;;;;;;;;4721317;30;45463;-59
2022/11/19 20:06:13;;;;;;;;;23.33;18.67;;;;;;;;4714358;30;46994;-58
2022/11/19 20:08:39;;;;;;;;;23.33;19.67;;;;;;;;4701375;30;46054;-59
2022/11/19 20:11:14;;;;;;;;;20.00;19.00;;;;;;;;4703948;30;45851;-58
2022/11/19 20:13:40;;;;;;;;;25.33;22.00;;;;;;;;4718321;30;45392;-58
2022/11/19 20:16:06;;;;;;;;;23.00;22.00;;;;;;;;4714673;30;46139;-59
2022/11/19 20:18:32;;;;;;;;;21.67;21.67;;;;;;;;4716406;30;45572;-59
2022/11/19 20:20:59;;;;;;;;;24.67;22.33;;;;;;;;4710853;30;45321;-59
2022/11/19 20:23:24;;;;;;;;;23.33;23.33;;;;;;;;4717589;30;45604;-59
2022/11/19 20:25:49;;;;;;;;;31.33;26.00;;;;;;;;4711585;30;45620;-59
2022/11/19 20:28:15;;;;;;;;;27.67;23.00;;;;;;;;4713574;30;45486;-59
2022/11/19 20:30:40;;;;;;;;;32.67;26.00;;;;;;;;4715334;30;45477;-59
2022/11/19 20:33:05;;;;;;;;;27.33;26.67;;;;;;;;4712991;30;45479;-59
2022/11/19 20:35:30;;;;;;;;;33.67;26.33;;;;;;;;4716462;30;45908;-59
2022/11/19 20:37:55;;;;;;;;;30.00;24.67;;;;;;;;4710867;30;45574;-59
2022/11/19 20:40:21;;;;;;;;;22.67;21.33;;;;;;;;4709844;30;45531;-60
2022/11/19 20:45:30;;;;;;;;;28.00;26.00;;;;;;;;4709874;30;45477;-60
2022/11/19 20:47:55;;;;;;;;;31.00;24.00;;;;;;;;4705296;30;45572;-58
2022/11/19 20:50:21;;;;;;;;;22.67;22.00;;;;;;;;4705921;30;45405;-58
2022/11/19 20:52:46;;;;;;;;;24.00;24.00;;;;;;;;4707221;30;45254;-59
2022/11/19 20:55:11;;;;;;;;;21.67;19.00;;;;;;;;4713583;30;46231;-58
2022/11/19 20:57:36;;;;;;;;;21.33;18.67;;;;;;;;4705289;30;45226;-58
2022/11/19 21:00:02;;;;;;;;;27.33;23.00;;;;;;;;4703437;30;45622;-59
2022/11/19 21:02:28;;;;;;;;;24.00;20.33;;;;;;;;4710171;30;45494;-59
2022/11/19 21:04:53;;;;;;;;;21.67;19.67;;;;;;;;4714607;30;47062;-59
2022/11/19 21:07:18;;;;;;;;;16.33;15.33;;;;;;;;4703567;30;45442;-59
2022/11/19 21:09:43;;;;;;;;;24.33;22.00;;;;;;;;4704543;30;45366;-59
2022/11/19 21:12:09;;;;;;;;;21.00;19.33;;;;;;;;4713391;30;45881;-59
2022/11/19 21:14:34;;;;;;;;;22.67;20.33;;;;;;;;4706210;30;45418;-59
2022/11/19 21:16:59;;;;;;;;;23.67;21.67;;;;;;;;4706973;30;45360;-59
2022/11/19 21:19:24;;;;;;;;;18.00;17.00;;;;;;;;4718143;30;45332;-59
2022/11/19 21:21:49;;;;;;;;;22.67;18.33;;;;;;;;4720842;30;45351;-59
2022/11/19 21:24:15;;;;;;;;;21.33;19.33;;;;;;;;4710119;30;45317;-59
2022/11/19 21:26:40;;;;;;;;;21.67;16.67;;;;;;;;4719590;30;45418;-59
2022/11/19 21:29:05;;;;;;;;;23.00;17.33;;;;;;;;4709311;30;45796;-59
2022/11/19 21:31:50;;;;;;;;;22.67;21.33;;;;;;;;4698506;30;45284;-59
2022/11/19 21:34:16;;;;;;;;;21.00;19.00;;;;;;;;4714806;30;46059;-60
2022/11/19 21:36:42;;;;;;;;;25.67;18.00;;;;;;;;4725094;30;45245;-59
2022/11/19 21:39:07;;;;;;;;;20.33;17.00;;;;;;;;4723391;30;46625;-60
2022/11/19 21:41:33;;;;;;;;;20.67;18.33;;;;;;;;4725070;30;45626;-59
2022/11/19 21:43:58;;;;;;;;;17.67;17.00;;;;;;;;4713091;30;46146;-60
2022/11/19 21:46:23;;;;;;;;;16.00;13.00;;;;;;;;4707936;30;45232;-59
2022/11/19 21:48:48;;;;;;;;;19.00;18.00;;;;;;;;4707097;30;45447;-59
2022/11/19 21:51:14;;;;;;;;;21.67;19.00;;;;;;;;4707267;30;45361;-59
2022/11/19 21:53:39;;;;;;;;;21.67;19.33;;;;;;;;4713489;30;45535;-59
2022/11/19 21:56:04;;;;;;;;;21.00;20.00;;;;;;;;4709754;30;46284;-59
2022/11/19 21:58:30;;;;;;;;;21.33;18.67;;;;;;;;4707507;30;45339;-60
2022/11/19 22:00:59;;;;;;;;;19.67;16.33;;;;;;;;4708920;30;45812;-60
2022/11/19 22:03:25;;;;;;;;;18.33;16.67;;;;;;;;4710401;30;45420;-60
2022/11/19 22:06:09;;;;;;;;;23.33;19.67;;;;;;;;4712033;30;45836;-59
2022/11/19 22:08:36;;;;;;;;;20.67;17.00;;;;;;;;4708615;30;45689;-59
2022/11/19 22:11:27;;;;;;;;;19.33;17.00;;;;;;;;4705435;30;45761;-59
2022/11/19 22:13:47;;;;;;;;;18.00;17.00;;;;;;;;4704709;30;45612;-59
2022/11/19 22:16:12;;;;;;;;;20.67;20.67;;;;;;;;4705471;30;46236;-60
2022/11/19 22:18:37;;;;;;;;;20.00;17.33;;;;;;;;4712280;30;45713;-59
2022/11/19 22:21:03;;;;;;;;;26.00;20.00;;;;;;;;4711129;30;45360;-60
2022/11/19 22:23:28;;;;;;;;;16.00;14.33;;;;;;;;4707053;30;46304;-60